Time;durP1;ratioP1;P1;durP2;ratioP2;P2;SDS_P1;SDS_P2;PMS_P1;PMS_P2;Temp;Humidity;BMP_temperature;BMP_pressure;BME280_temperature;BME280_humidity;BME280_pressure;Samples;Min_cycle;Max_cycle;Signal;HPM_P1;HPM_P2
2021/07/05 00:00:10;;;;;;;2.70;1.00;;;;;;;13.10;100.00;95751.75;1032446;28;20384;-51
2021/07/05 00:00:41;;;;;;;4.53;1.10;;;;;;;13.12;100.00;95755.09;1032340;28;20022;-49
2021/07/05 00:01:11;;;;;;;3.47;1.10;;;;;;;13.08;100.00;95753.69;1032301;28;20018;-51
2021/07/05 00:01:43;;;;;;;3.33;1.00;;;;;;;13.07;100.00;95750.22;1032327;28;20129;-50
2021/07/05 00:02:14;;;;;;;4.18;1.10;;;;;;;13.08;100.00;95757.16;1032438;28;20033;-50
2021/07/05 00:02:45;;;;;;;6.90;1.52;;;;;;;13.10;100.00;95754.38;1032365;28;20033;-49
2021/07/05 00:03:16;;;;;;;3.65;1.25;;;;;;;13.09;100.00;95758.00;1032294;28;20022;-50
2021/07/05 00:03:47;;;;;;;5.00;1.20;;;;;;;13.09;100.00;95758.81;1031642;28;20069;-50
2021/07/05 00:04:17;;;;;;;3.90;1.05;;;;;;;13.10;100.00;95757.03;1032511;28;20495;-51
2021/07/05 00:04:48;;;;;;;3.60;1.30;;;;;;;13.09;100.00;95753.56;1032410;28;20031;-49
2021/07/05 00:05:19;;;;;;;4.55;1.40;;;;;;;13.11;100.00;95762.16;1032301;28;20034;-50
2021/07/05 00:05:49;;;;;;;3.50;1.13;;;;;;;13.11;100.00;95756.06;1032327;28;20440;-51
2021/07/05 00:06:20;;;;;;;6.78;1.80;;;;;;;13.13;100.00;95752.34;1032381;28;20113;-50
2021/07/05 00:06:50;;;;;;;2.88;1.10;;;;;;;13.12;100.00;95750.69;1032499;28;20046;-49
2021/07/05 00:07:21;;;;;;;3.72;1.33;;;;;;;13.11;100.00;95749.00;1032287;28;20022;-50
2021/07/05 00:07:52;;;;;;;4.65;1.60;;;;;;;13.10;100.00;95754.38;1032260;28;20404;-50
2021/07/05 00:08:23;;;;;;;2.47;1.10;;;;;;;13.10;100.00;95757.03;1032516;28;20011;-50
2021/07/05 00:08:54;;;;;;;3.50;1.30;;;;;;;13.10;100.00;95759.66;1032368;28;20049;-50
2021/07/05 00:09:24;;;;;;;1.90;1.00;;;;;;;13.09;100.00;95761.47;1032311;28;20118;-50
2021/07/05 00:09:55;;;;;;;4.75;1.13;;;;;;;13.10;100.00;95767.53;1032297;28;20033;-49
2021/07/05 00:10:26;;;;;;;5.95;1.27;;;;;;;13.10;100.00;95760.50;1032421;28;20097;-50
2021/07/05 00:10:56;;;;;;;5.38;1.13;;;;;;;13.09;100.00;95766.72;1032382;28;20030;-50
2021/07/05 00:11:27;;;;;;;2.72;1.30;;;;;;;13.14;100.00;95771.63;1032292;28;20543;-50
2021/07/05 00:11:58;;;;;;;4.20;1.25;;;;;;;13.13;100.00;95776.03;1032175;28;20441;-51
2021/07/05 00:12:28;;;;;;;3.15;1.05;;;;;;;13.14;100.00;95772.44;1032386;28;20046;-50
2021/07/05 00:12:59;;;;;;;3.80;1.20;;;;;;;13.14;100.00;95774.25;1032374;28;20026;-50
2021/07/05 00:13:31;;;;;;;3.92;1.10;;;;;;;13.17;100.00;95772.16;1031842;28;20022;-51
2021/07/05 00:14:02;;;;;;;2.67;1.20;;;;;;;13.17;100.00;95777.44;1032109;28;20065;-50
2021/07/05 00:14:33;;;;;;;5.45;1.50;;;;;;;13.18;100.00;95767.75;1032443;28;20419;-50
2021/07/05 00:15:04;;;;;;;2.47;1.17;;;;;;;13.18;100.00;95773.84;1032456;28;20042;-50
2021/07/05 00:15:35;;;;;;;3.65;1.10;;;;;;;13.21;100.00;95767.47;1032245;28;20490;-50
2021/07/05 00:16:06;;;;;;;3.47;1.10;;;;;;;13.20;100.00;95769.28;1032128;28;20026;-50
2021/07/05 00:16:37;;;;;;;4.18;1.40;;;;;;;13.21;100.00;95767.47;1032303;28;20041;-50
2021/07/05 00:17:08;;;;;;;2.58;1.13;;;;;;;13.22;100.00;95767.34;1032349;28;20018;-52
2021/07/05 00:17:39;;;;;;;3.20;1.20;;;;;;;13.21;100.00;95764.84;1031984;28;20022;-49
2021/07/05 00:18:10;;;;;;;3.53;1.02;;;;;;;13.20;100.00;95758.75;1032303;28;20038;-50
2021/07/05 00:18:41;;;;;;;2.67;1.33;;;;;;;13.21;100.00;95759.59;1032257;28;20011;-49
2021/07/05 00:19:12;;;;;;;2.80;1.05;;;;;;;13.22;100.00;95756.00;1032283;28;20022;-49
2021/07/05 00:19:43;;;;;;;2.20;1.20;;;;;;;13.20;100.00;95761.41;1032092;28;20476;-51
2021/07/05 00:20:14;;;;;;;6.85;1.60;;;;;;;13.20;100.00;95755.31;1032293;28;20007;-50
2021/07/05 00:20:45;;;;;;;2.42;1.15;;;;;;;13.20;100.00;95753.50;1032300;28;20026;-51
2021/07/05 00:21:16;;;;;;;4.45;1.27;;;;;;;13.19;100.00;95756.25;1032270;28;20042;-50
2021/07/05 00:21:47;;;;;;;2.50;1.20;;;;;;;13.19;100.00;95743.97;1032050;28;20019;-51
2021/07/05 00:22:17;;;;;;;3.67;1.20;;;;;;;13.20;100.00;95750.03;1032278;28;20021;-50
2021/07/05 00:22:48;;;;;;;8.07;1.50;;;;;;;13.19;100.00;95748.38;1032414;28;20392;-50
2021/07/05 00:23:19;;;;;;;2.10;1.05;;;;;;;13.16;100.00;95754.72;1032337;28;20014;-52
2021/07/05 00:23:50;;;;;;;2.15;1.10;;;;;;;13.14;100.00;95758.47;1031527;28;20050;-50
2021/07/05 00:24:21;;;;;;;5.15;1.10;;;;;;;13.15;100.00;95753.03;1032245;28;20397;-50
2021/07/05 00:24:51;;;;;;;4.30;1.27;;;;;;;13.14;100.00;95748.75;1032412;28;20026;-50
2021/07/05 00:25:22;;;;;;;4.40;1.20;;;;;;;13.15;100.00;95747.78;1032343;28;20061;-50
2021/07/05 00:25:53;;;;;;;4.63;1.10;;;;;;;13.15;100.00;95741.69;1032039;28;20054;-51
2021/07/05 00:26:23;;;;;;;4.65;1.35;;;;;;;13.16;100.00;95741.56;1032347;28;20048;-51
2021/07/05 00:26:54;;;;;;;4.65;1.25;;;;;;;13.16;100.00;95738.94;1032265;28;20017;-50
2021/07/05 00:27:25;;;;;;;2.38;1.13;;;;;;;13.16;100.00;95738.94;1032362;28;20011;-51
2021/07/05 00:27:55;;;;;;;3.38;1.30;;;;;;;13.14;100.00;95738.25;1031990;28;20023;-51
2021/07/05 00:28:26;;;;;;;2.85;1.30;;;;;;;13.13;100.00;95743.63;1032359;28;20042;-50
2021/07/05 00:28:57;;;;;;;3.95;1.20;;;;;;;13.09;100.00;95736.97;1032261;28;20090;-50
2021/07/05 00:29:27;;;;;;;6.10;1.50;;;;;;;13.10;100.00;95738.59;1032326;28;20026;-50
2021/07/05 00:29:58;;;;;;;3.15;1.05;;;;;;;13.11;100.00;95741.13;1032083;28;20595;-49
2021/07/05 00:30:30;;;;;;;2.45;1.15;;;;;;;13.13;100.00;95738.38;1032355;28;20038;-50
2021/07/05 00:31:00;;;;;;;3.95;1.20;;;;;;;13.13;100.00;95741.81;1032282;28;20436;-51
2021/07/05 00:31:31;;;;;;;4.72;1.40;;;;;;;13.13;100.00;95746.25;1032225;28;20011;-51
2021/07/05 00:32:02;;;;;;;3.10;1.35;;;;;;;13.08;100.00;95746.63;1032080;28;20101;-50
2021/07/05 00:32:32;;;;;;;2.97;1.20;;;;;;;13.09;100.00;95750.94;1032244;28;20015;-52
2021/07/05 00:33:03;;;;;;;4.47;1.38;;;;;;;13.09;100.00;95753.56;1032343;28;20396;-51
2021/07/05 00:33:36;;;;;;;3.85;1.40;;;;;;;13.09;100.00;95752.75;1031834;28;20014;-50
2021/07/05 00:34:06;;;;;;;3.75;1.20;;;;;;;13.07;100.00;95752.03;1032131;28;20010;-52
2021/07/05 00:34:37;;;;;;;3.40;1.20;;;;;;;13.08;100.00;95753.69;1032293;28;20011;-50
2021/07/05 00:35:09;;;;;;;4.85;1.15;;;;;;;13.08;100.00;95751.06;1032363;28;20007;-50
2021/07/05 00:35:40;;;;;;;2.35;1.10;;;;;;;13.08;100.00;95754.50;1031962;28;20015;-50
2021/07/05 00:36:11;;;;;;;2.10;1.02;;;;;;;13.09;100.00;95743.03;1031738;28;20384;-50
2021/07/05 00:36:41;;;;;;;3.75;1.40;;;;;;;13.10;100.00;95749.13;1032250;28;20018;-50
2021/07/05 00:37:12;;;;;;;3.28;1.08;;;;;;;13.07;100.00;95747.59;1032249;28;20097;-50
2021/07/05 00:37:42;;;;;;;4.78;1.35;;;;;;;13.05;100.00;95746.06;1032086;28;20026;-50
2021/07/05 00:38:13;;;;;;;4.15;1.25;;;;;;;13.04;100.00;95742.59;1032184;28;20362;-52
2021/07/05 00:38:44;;;;;;;3.22;1.20;;;;;;;13.06;100.00;95743.28;1032131;28;20072;-53
2021/07/05 00:39:15;;;;;;;3.05;1.40;;;;;;;13.07;100.00;95746.78;1032224;28;20019;-51
2021/07/05 00:39:45;;;;;;;3.17;1.50;;;;;;;13.07;100.00;95750.22;1032227;28;20084;-51
2021/07/05 00:40:16;;;;;;;2.40;1.20;;;;;;;13.07;100.00;95750.22;1032206;28;20023;-50
2021/07/05 00:40:47;;;;;;;4.68;1.25;;;;;;;13.07;100.00;95750.22;1032120;28;20015;-50
2021/07/05 00:41:18;;;;;;;2.35;1.10;;;;;;;13.06;100.00;95745.09;1032357;28;20045;-51
2021/07/05 00:41:48;;;;;;;3.08;1.40;;;;;;;13.08;100.00;95749.25;1032220;28;20392;-50
2021/07/05 00:42:19;;;;;;;8.45;1.50;;;;;;;13.03;100.00;95746.19;1031744;28;20109;-51
2021/07/05 00:42:50;;;;;;;3.15;1.42;;;;;;;13.02;100.00;95753.22;1031804;28;20095;-51
2021/07/05 00:43:21;;;;;;;2.90;1.30;;;;;;;13.04;100.00;95747.84;1031990;28;20504;-50
2021/07/05 00:43:51;;;;;;;5.35;1.38;;;;;;;13.01;100.00;95750.75;1031257;28;20026;-52
2021/07/05 00:44:22;;;;;;;2.72;1.58;;;;;;;13.02;100.00;95752.41;1032248;28;20050;-51
2021/07/05 00:44:52;;;;;;;4.18;1.48;;;;;;;12.97;100.00;95747.53;1032067;28;20500;-50
2021/07/05 00:45:24;;;;;;;5.78;1.33;;;;;;;12.96;100.00;95748.50;1032298;28;20141;-51
2021/07/05 00:45:54;;;;;;;5.43;1.50;;;;;;;12.98;100.00;95748.38;1032150;28;20046;-51
2021/07/05 00:46:25;;;;;;;3.03;1.38;;;;;;;12.96;100.00;95745.03;1032276;28;20477;-50
2021/07/05 00:46:56;;;;;;;2.70;1.40;;;;;;;12.95;100.00;95748.59;1032016;28;20610;-52
2021/07/05 00:47:26;;;;;;;4.13;1.58;;;;;;;12.94;100.00;95747.78;1032308;28;20101;-50
2021/07/05 00:47:57;;;;;;;2.83;1.45;;;;;;;12.92;100.00;95749.72;1032069;28;20030;-51
2021/07/05 00:48:28;;;;;;;5.43;1.30;;;;;;;12.91;100.00;95750.66;1032299;28;20041;-50
2021/07/05 00:48:58;;;;;;;4.03;1.30;;;;;;;12.92;100.00;95754.16;1032059;28;20503;-51
2021/07/05 00:49:29;;;;;;;5.85;1.25;;;;;;;12.91;100.00;95747.19;1032272;28;20015;-51
2021/07/05 00:49:59;;;;;;;2.72;1.30;;;;;;;12.91;100.00;95749.84;1032091;28;20477;-51
2021/07/05 00:50:30;;;;;;;3.90;1.48;;;;;;;12.88;100.00;95753.56;1032183;28;20025;-51
2021/07/05 00:51:01;;;;;;;4.28;1.30;;;;;;;12.91;100.00;95755.09;1032107;28;20014;-50
2021/07/05 00:51:31;;;;;;;3.20;1.40;;;;;;;12.90;100.00;95753.44;1032238;28;20014;-50
2021/07/05 00:52:04;;;;;;;4.18;1.50;;;;;;;12.91;100.00;95755.91;1032129;28;20020;-50
2021/07/05 00:52:35;;;;;;;5.68;1.50;;;;;;;12.88;100.00;95755.38;1032087;28;20022;-52
2021/07/05 00:53:06;;;;;;;2.45;1.10;;;;;;;12.89;100.00;95755.22;1032017;28;20093;-50
2021/07/05 00:53:37;;;;;;;2.58;1.10;;;;;;;12.88;100.00;95750.94;1031531;28;20022;-53
2021/07/05 00:54:07;;;;;;;4.05;1.48;;;;;;;12.88;100.00;95756.19;1032183;28;20030;-50
2021/07/05 00:54:38;;;;;;;3.28;1.48;;;;;;;12.89;100.00;95757.84;1032157;28;20460;-51
2021/07/05 00:55:10;;;;;;;10.77;1.70;;;;;;;12.91;100.00;95757.72;1032097;28;20026;-51
2021/07/05 00:55:40;;;;;;;4.38;1.40;;;;;;;12.88;100.00;95750.09;1032185;28;20014;-50
2021/07/05 00:56:11;;;;;;;2.53;1.20;;;;;;;12.88;100.00;95752.75;1032130;28;20097;-51
2021/07/05 00:56:42;;;;;;;6.20;1.88;;;;;;;12.90;100.00;95748.19;1032180;28;20019;-51
2021/07/05 00:57:20;;;;;;;4.03;1.50;;;;;;;12.89;100.00;95749.13;1031940;28;20022;-50
2021/07/05 00:57:51;;;;;;;4.82;1.50;;;;;;;12.89;100.00;95752.59;1032088;28;20425;-52
2021/07/05 00:58:22;;;;;;;3.83;1.60;;;;;;;12.92;100.00;95748.88;1032142;28;20102;-51
2021/07/05 00:58:53;;;;;;;3.63;1.52;;;;;;;12.90;100.00;95745.56;1032163;28;20098;-51
2021/07/05 00:59:24;;;;;;;4.13;1.50;;;;;;;12.92;100.00;95749.72;1031946;28;20014;-51
2021/07/05 00:59:56;;;;;;;6.05;1.75;;;;;;;12.91;100.00;95749.84;1032131;28;20022;-51
2021/07/05 01:00:27;;;;;;;4.15;1.55;;;;;;;12.90;100.00;95742.91;1032152;28;20015;-50
2021/07/05 01:00:58;;;;;;;4.32;1.70;;;;;;;12.89;100.00;95747.31;1032223;28;20019;-50
2021/07/05 01:01:28;;;;;;;5.43;1.63;;;;;;;12.90;100.00;95742.91;1032036;28;20444;-51
2021/07/05 01:01:59;;;;;;;5.20;1.70;;;;;;;12.89;100.00;95743.88;1032039;28;20022;-50
2021/07/05 01:02:29;;;;;;;6.18;1.83;;;;;;;12.89;100.00;95744.69;1032104;28;20018;-50
2021/07/05 01:03:00;;;;;;;4.05;1.63;;;;;;;12.88;100.00;95745.69;1032138;28;20030;-51
2021/07/05 01:03:31;;;;;;;4.22;1.90;;;;;;;12.80;100.00;95734.94;1031580;28;20033;-50
2021/07/05 01:04:02;;;;;;;4.70;1.58;;;;;;;12.86;100.00;95742.34;1031860;28;20085;-50
2021/07/05 01:04:32;;;;;;;3.97;1.60;;;;;;;12.86;100.00;95742.34;1032154;28;20069;-51
2021/07/05 01:05:04;;;;;;;3.05;1.40;;;;;;;12.87;100.00;95745.78;1032204;28;20045;-51
2021/07/05 01:05:34;;;;;;;4.68;1.63;;;;;;;12.88;100.00;95742.22;1032091;28;20046;-51
2021/07/05 01:06:05;;;;;;;9.23;1.48;;;;;;;12.88;100.00;95743.03;1032103;28;20018;-50
2021/07/05 01:06:36;;;;;;;6.85;1.40;;;;;;;12.88;100.00;95743.03;1032235;28;20489;-50
2021/07/05 01:07:07;;;;;;;3.97;1.60;;;;;;;12.85;100.00;95753.81;1032081;28;20134;-51
2021/07/05 01:07:37;;;;;;;5.40;1.95;;;;;;;12.89;100.00;95749.13;1031933;28;20026;-49
2021/07/05 01:08:08;;;;;;;3.38;1.60;;;;;;;12.89;100.00;95744.69;1031731;28;20017;-50
2021/07/05 01:08:39;;;;;;;3.00;1.40;;;;;;;12.87;100.00;95749.25;1031865;28;20475;-52
2021/07/05 01:09:09;;;;;;;6.70;1.88;;;;;;;12.90;100.00;95743.75;1031818;28;20030;-51
2021/07/05 01:09:40;;;;;;;4.15;1.92;;;;;;;12.92;100.00;95749.72;1031739;28;20027;-51
2021/07/05 01:10:12;;;;;;;5.25;1.50;;;;;;;12.89;100.00;95749.94;1032078;28;20023;-51
2021/07/05 01:10:42;;;;;;;4.20;1.52;;;;;;;12.88;100.00;95744.84;1032186;28;20030;-52
2021/07/05 01:11:13;;;;;;;7.40;1.60;;;;;;;12.88;100.00;95745.69;1032158;28;20027;-50
2021/07/05 01:11:44;;;;;;;4.25;2.08;;;;;;;12.91;100.00;95748.03;1032013;28;20393;-51
2021/07/05 01:12:14;;;;;;;5.45;1.60;;;;;;;12.94;100.00;95752.22;1031941;28;20026;-51
2021/07/05 01:12:45;;;;;;;5.55;1.58;;;;;;;12.94;100.00;95752.22;1032235;28;20030;-51
2021/07/05 01:13:16;;;;;;;5.13;1.55;;;;;;;12.96;100.00;95739.78;1032097;28;20037;-51
2021/07/05 01:13:47;;;;;;;4.05;1.45;;;;;;;12.97;100.00;95747.53;1031398;28;20137;-51
2021/07/05 01:14:18;;;;;;;4.85;1.50;;;;;;;12.98;100.00;95743.94;1032028;28;20037;-50
2021/07/05 01:14:48;;;;;;;3.38;1.55;;;;;;;12.97;100.00;95738.78;1032155;28;20018;-50
2021/07/05 01:15:21;;;;;;;2.60;1.30;;;;;;;12.98;100.00;95736.03;1032084;28;20014;-51
2021/07/05 01:15:52;;;;;;;3.72;1.40;;;;;;;12.97;100.00;95736.16;1031959;28;20069;-51
2021/07/05 01:16:23;;;;;;;4.18;1.50;;;;;;;12.96;100.00;95737.97;1032006;28;20161;-51
2021/07/05 01:16:54;;;;;;;3.28;1.55;;;;;;;13.01;100.00;95737.59;1032174;28;20029;-51
2021/07/05 01:17:40;;;;;;;2.65;1.42;;;;;;;13.03;100.00;95735.69;1032143;28;20045;-50
2021/07/05 01:18:10;;;;;;;3.72;1.50;;;;;;;13.06;100.00;95727.50;1031881;28;20487;-51
2021/07/05 01:18:41;;;;;;;2.95;1.30;;;;;;;13.06;100.00;95731.94;1032118;28;20022;-51
2021/07/05 01:19:12;;;;;;;4.93;1.50;;;;;;;13.01;100.00;95730.53;1032099;28;20451;-51
2021/07/05 01:19:45;;;;;;;3.28;1.40;;;;;;;13.01;100.00;95733.16;1032065;28;20100;-50
2021/07/05 01:20:18;;;;;;;4.45;1.42;;;;;;;13.07;100.00;95733.63;1031891;28;20033;-51
2021/07/05 01:20:49;;;;;;;6.50;1.52;;;;;;;13.07;100.00;95733.63;1032123;28;20057;-51
2021/07/05 01:21:21;;;;;;;5.95;1.58;;;;;;;13.11;100.00;95735.03;1032146;28;20044;-51
2021/07/05 01:21:51;;;;;;;2.58;1.40;;;;;;;13.11;100.00;95732.41;1032092;28;20026;-51
2021/07/05 01:22:22;;;;;;;5.15;1.63;;;;;;;13.10;100.00;95730.72;1031903;28;20105;-50
2021/07/05 01:22:53;;;;;;;3.80;1.35;;;;;;;13.09;100.00;95731.69;1032160;28;20046;-51
2021/07/05 01:23:23;;;;;;;4.90;1.63;;;;;;;13.08;100.00;95732.66;1032048;28;20022;-52
2021/07/05 01:23:54;;;;;;;5.13;1.48;;;;;;;13.09;100.00;95729.06;1031622;28;20105;-50
2021/07/05 01:24:26;;;;;;;3.72;1.23;;;;;;;13.11;100.00;95729.78;1031942;28;20018;-51
2021/07/05 01:24:59;;;;;;;2.15;1.27;;;;;;;13.10;100.00;95728.09;1032128;28;20097;-51
2021/07/05 01:25:30;;;;;;;5.55;1.63;;;;;;;13.11;100.00;95733.22;1032161;28;20046;-51
2021/07/05 01:26:00;;;;;;;4.18;1.48;;;;;;;13.11;100.00;95727.97;1032045;28;20503;-51
2021/07/05 01:26:31;;;;;;;2.72;1.35;;;;;;;13.11;100.00;95727.97;1031885;28;20022;-51
2021/07/05 01:27:02;;;;;;;9.70;2.00;;;;;;;13.16;100.00;95727.59;1032038;28;20034;-51
2021/07/05 01:27:33;;;;;;;4.50;1.75;;;;;;;13.16;100.00;95733.69;1032027;28;20026;-51
2021/07/05 01:28:05;;;;;;;3.08;1.40;;;;;;;13.15;100.00;95728.53;1031848;28;20031;-51
2021/07/05 01:28:36;;;;;;;6.28;1.30;;;;;;;13.09;100.00;95727.25;1031933;28;20033;-51
2021/07/05 01:29:06;;;;;;;5.75;1.30;;;;;;;13.10;100.00;95722.81;1032058;28;20025;-52
2021/07/05 01:29:39;;;;;;;5.00;1.40;;;;;;;13.11;100.00;95721.88;1031650;28;20026;-51
2021/07/05 01:30:11;;;;;;;3.30;1.45;;;;;;;13.12;100.00;95724.38;1031728;28;20061;-52
2021/07/05 01:30:42;;;;;;;5.10;1.60;;;;;;;13.11;100.00;95721.88;1031635;28;20097;-52
2021/07/05 01:31:12;;;;;;;4.95;1.50;;;;;;;13.11;100.00;95727.97;1031804;28;20022;-50
2021/07/05 01:31:43;;;;;;;3.33;1.30;;;;;;;13.14;100.00;95724.25;1032070;28;20065;-51
2021/07/05 01:32:14;;;;;;;4.32;1.40;;;;;;;13.14;100.00;95725.09;1031895;28;20105;-52
2021/07/05 01:32:45;;;;;;;7.72;1.98;;;;;;;13.15;100.00;95723.28;1031922;28;20029;-50
2021/07/05 01:33:16;;;;;;;3.50;1.63;;;;;;;13.15;100.00;95720.66;1032123;28;20461;-52
2021/07/05 01:33:46;;;;;;;2.60;1.30;;;;;;;13.14;100.00;95721.63;1031451;28;20043;-51
2021/07/05 01:34:17;;;;;;;3.78;1.45;;;;;;;13.11;100.00;95720.06;1031986;28;20018;-50
2021/07/05 01:34:48;;;;;;;3.53;1.50;;;;;;;13.16;100.00;95722.34;1031931;28;20448;-52
2021/07/05 01:35:18;;;;;;;3.53;1.48;;;;;;;13.17;100.00;95721.34;1032010;28;20439;-51
2021/07/05 01:35:49;;;;;;;4.32;1.60;;;;;;;13.20;100.00;95721.09;1031703;28;20026;-50
2021/07/05 01:36:19;;;;;;;5.75;1.92;;;;;;;13.18;100.00;95720.41;1032028;28;20537;-51
2021/07/05 01:36:50;;;;;;;4.80;1.50;;;;;;;13.13;100.00;95718.16;1031886;28;20029;-50
2021/07/05 01:37:21;;;;;;;9.07;1.70;;;;;;;13.12;100.00;95713.88;1031734;28;20026;-50
2021/07/05 01:37:53;;;;;;;2.38;1.27;;;;;;;13.11;100.00;95716.63;1031570;28;20034;-51
2021/07/05 01:38:23;;;;;;;2.58;1.40;;;;;;;13.06;100.00;95718.78;1031724;28;20023;-51
2021/07/05 01:38:54;;;;;;;6.15;1.85;;;;;;;13.01;100.00;95712.13;1031626;28;20109;-51
2021/07/05 01:39:25;;;;;;;3.17;1.40;;;;;;;13.09;100.00;95718.53;1032038;28;20413;-50
2021/07/05 01:39:56;;;;;;;7.00;1.67;;;;;;;13.13;100.00;95718.16;1031897;28;20045;-52
2021/07/05 01:40:26;;;;;;;7.30;1.90;;;;;;;13.11;100.00;95717.44;1035793;28;20018;-50
2021/07/05 01:41:00;;;;;;;3.65;1.60;;;;;;;13.09;100.00;95721.19;1035660;28;20022;-50
2021/07/05 01:41:31;;;;;;;4.97;1.40;;;;;;;13.12;100.00;95716.50;1035872;28;20439;-51
2021/07/05 01:42:03;;;;;;;4.13;1.60;;;;;;;13.17;100.00;95718.72;1035107;28;20018;-51
2021/07/05 01:42:34;;;;;;;4.97;1.73;;;;;;;13.18;100.00;95715.97;1031915;28;20014;-51
2021/07/05 01:43:05;;;;;;;5.32;1.55;;;;;;;13.14;100.00;95719.00;1031909;28;20419;-51
2021/07/05 01:43:36;;;;;;;2.83;1.52;;;;;;;13.10;100.00;95725.47;1031595;28;20010;-50
2021/07/05 01:44:06;;;;;;;3.85;1.50;;;;;;;13.11;100.00;95719.25;1031853;28;20092;-50
2021/07/05 01:44:37;;;;;;;3.85;1.48;;;;;;;13.17;100.00;95723.97;1031932;28;20053;-51
2021/07/05 01:45:08;;;;;;;10.10;1.92;;;;;;;13.13;100.00;95719.94;1031872;28;20022;-50
2021/07/05 01:45:39;;;;;;;3.35;1.40;;;;;;;13.14;100.00;95721.63;1031955;28;20014;-50
2021/07/05 01:46:10;;;;;;;2.95;1.58;;;;;;;13.09;100.00;95721.19;1031963;28;20107;-51
2021/07/05 01:46:40;;;;;;;3.75;1.63;;;;;;;13.06;100.00;95718.78;1035770;28;20087;-49
2021/07/05 01:47:11;;;;;;;4.72;1.60;;;;;;;13.07;100.00;95723.94;1035499;28;20021;-49
2021/07/05 01:47:42;;;;;;;3.10;1.40;;;;;;;13.08;100.00;95720.31;1035397;28;20013;-52
2021/07/05 01:48:13;;;;;;;6.00;1.80;;;;;;;13.11;100.00;95727.13;1035438;28;20097;-51
2021/07/05 01:48:46;;;;;;;3.55;1.60;;;;;;;13.07;100.00;95721.31;1032060;28;20026;-50
2021/07/05 01:49:17;;;;;;;5.00;1.75;;;;;;;13.03;100.00;95723.34;1031804;28;20018;-50
2021/07/05 01:49:47;;;;;;;7.80;1.70;;;;;;;13.00;100.00;95723.59;1032143;28;20084;-51
2021/07/05 01:50:18;;;;;;;4.40;1.60;;;;;;;12.95;100.00;95720.53;1031979;28;20018;-50
2021/07/05 01:50:49;;;;;;;3.03;1.60;;;;;;;12.91;100.00;95727.00;1031993;28;20022;-51
2021/07/05 01:51:19;;;;;;;8.18;1.92;;;;;;;12.90;100.00;95721.88;1031846;28;20022;-50
2021/07/05 01:51:50;;;;;;;3.85;1.70;;;;;;;12.92;100.00;95728.69;1032108;28;20014;-50
2021/07/05 01:52:21;;;;;;;8.48;1.95;;;;;;;12.89;100.00;95723.66;1031849;28;20022;-51
2021/07/05 01:52:52;;;;;;;5.25;1.80;;;;;;;12.90;100.00;95719.25;1032043;28;20447;-51
2021/07/05 01:53:22;;;;;;;6.80;1.90;;;;;;;12.87;100.00;95719.50;1031865;28;20018;-51
2021/07/05 01:53:53;;;;;;;4.88;1.80;;;;;;;12.82;100.00;95718.09;1031417;28;20472;-50
2021/07/05 01:54:24;;;;;;;5.28;2.08;;;;;;;12.78;100.00;95726.34;1031882;28;20087;-51
2021/07/05 01:54:54;;;;;;;5.15;1.92;;;;;;;12.75;100.00;95721.34;1031912;28;20019;-51
2021/07/05 01:55:33;;;;;;;8.45;2.08;;;;;;;12.77;100.00;95715.00;1031493;28;20026;-51
2021/07/05 01:56:04;;;;;;;6.85;1.70;;;;;;;12.71;100.00;95723.41;1031686;28;20090;-51
2021/07/05 01:56:35;;;;;;;7.03;1.90;;;;;;;12.67;100.00;95724.63;1031668;28;20010;-53
2021/07/05 01:57:06;;;;;;;7.35;2.25;;;;;;;12.63;100.00;95726.66;1033048;28;20022;-50
2021/07/05 01:57:37;;;;;;;11.27;3.38;;;;;;;12.57;100.00;95716.63;1035428;28;20022;-51
2021/07/05 01:58:08;;;;;;;4.97;1.52;;;;;;;12.60;100.00;95720.81;1035292;28;20112;-51
2021/07/05 01:58:38;;;;;;;10.77;2.35;;;;;;;12.61;100.00;95717.22;1031854;28;20030;-50
2021/07/05 01:59:09;;;;;;;4.28;1.92;;;;;;;12.54;100.00;95716.91;1031501;28;20073;-51
2021/07/05 01:59:40;;;;;;;9.48;2.35;;;;;;;12.54;100.00;95719.53;1031623;28;20088;-48
2021/07/05 02:00:14;;;;;;;7.15;1.80;;;;;;;12.56;100.00;95722.88;1031607;28;20018;-50
2021/07/05 02:00:46;;;;;;;7.05;1.80;;;;;;;12.53;100.00;95728.38;1031727;28;20397;-50
2021/07/05 02:01:17;;;;;;;4.68;1.90;;;;;;;12.51;100.00;95729.47;1031998;28;20018;-51
2021/07/05 02:01:48;;;;;;;9.07;2.00;;;;;;;12.51;100.00;95727.66;1031821;28;20022;-50
2021/07/05 02:02:18;;;;;;;14.63;3.80;;;;;;;12.44;100.00;95724.72;1031887;28;20015;-50
2021/07/05 02:02:52;;;;;;;4.60;2.03;;;;;;;12.43;100.00;95723.03;1032014;28;20034;-51
2021/07/05 02:03:23;;;;;;;6.68;2.10;;;;;;;12.40;100.00;95722.44;1031667;28;20084;-52
2021/07/05 02:03:53;;;;;;;9.60;2.38;;;;;;;12.41;100.00;95726.75;1031075;28;20057;-51
2021/07/05 02:04:25;;;;;;;5.05;1.90;;;;;;;12.40;100.00;95715.38;1031628;28;20089;-50
2021/07/05 02:04:56;;;;;;;5.25;2.20;;;;;;;12.41;100.00;95722.31;1028317;28;20034;-50
2021/07/05 02:05:27;;;;;;;6.88;1.73;;;;;;;12.39;100.00;95726.88;1031729;28;20045;-50
2021/07/05 02:05:58;;;;;;;5.72;2.90;;;;;;;12.40;100.00;95720.66;1027521;28;20031;-50
2021/07/05 02:06:28;;;;;;;7.45;2.33;;;;;;;12.37;100.00;95720.06;1027776;28;20043;-51
2021/07/05 02:06:59;;;;;;;6.18;1.92;;;;;;;12.37;100.00;95723.53;1031742;28;20030;-52
2021/07/05 02:07:29;;;;;;;5.20;1.90;;;;;;;12.39;100.00;95719.00;1031699;28;20046;-50
2021/07/05 02:08:00;;;;;;;4.78;2.15;;;;;;;12.38;100.00;95719.09;1031790;28;20033;-50
2021/07/05 02:08:31;;;;;;;3.90;2.30;;;;;;;12.35;100.00;95720.22;1031902;28;20097;-49
2021/07/05 02:09:05;;;;;;;6.70;2.25;;;;;;;12.39;100.00;95723.41;1031923;28;20072;-50
2021/07/05 02:09:35;;;;;;;4.00;1.90;;;;;;;12.38;100.00;95713.84;1032062;28;20459;-51
2021/07/05 02:10:08;;;;;;;3.88;1.80;;;;;;;12.37;100.00;95718.28;1031884;28;20027;-51
2021/07/05 02:10:39;;;;;;;9.40;2.20;;;;;;;12.39;100.00;95716.38;1031904;28;20037;-49
2021/07/05 02:11:10;;;;;;;5.60;2.22;;;;;;;12.39;100.00;95715.53;1032033;28;20089;-51
2021/07/05 02:11:41;;;;;;;4.15;2.00;;;;;;;12.39;100.00;95715.53;1031884;28;20024;-49
2021/07/05 02:12:12;;;;;;;6.35;2.10;;;;;;;12.37;100.00;95717.44;1031476;28;20030;-51
2021/07/05 02:12:43;;;;;;;4.68;2.33;;;;;;;12.40;100.00;95712.75;1031532;28;20457;-49
2021/07/05 02:13:19;;;;;;;5.95;2.17;;;;;;;12.37;100.00;95709.53;1031674;28;20469;-51
2021/07/05 02:13:50;;;;;;;4.95;2.30;;;;;;;12.31;100.00;95715.31;1031098;28;20489;-49
2021/07/05 02:14:20;;;;;;;8.55;2.45;;;;;;;12.31;100.00;95710.06;1031751;28;20022;-50
2021/07/05 02:14:51;;;;;;;6.32;2.00;;;;;;;12.32;100.00;95714.38;1031889;28;20441;-49
2021/07/05 02:15:22;;;;;;;10.23;2.17;;;;;;;12.33;100.00;95716.88;1031686;28;20022;-50
2021/07/05 02:15:55;;;;;;;5.32;2.10;;;;;;;12.34;100.00;95721.16;1031555;28;20022;-49
2021/07/05 02:16:25;;;;;;;3.40;1.80;;;;;;;12.34;100.00;95718.53;1031417;28;20030;-50
2021/07/05 02:16:56;;;;;;;6.45;2.22;;;;;;;12.33;100.00;95721.28;1031703;28;20026;-50
2021/07/05 02:17:26;;;;;;;7.72;2.20;;;;;;;12.32;100.00;95723.06;1032015;28;20019;-50
2021/07/05 02:17:57;;;;;;;6.43;2.10;;;;;;;12.31;100.00;95726.63;1031892;28;20491;-50
2021/07/05 02:18:28;;;;;;;5.13;2.10;;;;;;;12.30;100.00;95717.09;1031728;28;20162;-50
2021/07/05 02:18:59;;;;;;;5.75;2.05;;;;;;;12.31;100.00;95723.19;1031905;28;20049;-50
2021/07/05 02:19:30;;;;;;;4.88;1.88;;;;;;;12.29;100.00;95727.72;1031920;28;20022;-51
2021/07/05 02:20:00;;;;;;;4.10;1.98;;;;;;;12.26;100.00;95728.84;1032023;28;20021;-49
2021/07/05 02:20:31;;;;;;;8.95;2.05;;;;;;;12.22;100.00;95722.16;1031710;28;20015;-50
2021/07/05 02:21:04;;;;;;;4.95;1.98;;;;;;;12.22;100.00;95722.16;1031967;28;20025;-50
2021/07/05 02:21:35;;;;;;;3.75;2.20;;;;;;;12.25;100.00;95720.09;1032016;28;20443;-50
2021/07/05 02:22:06;;;;;;;5.75;2.20;;;;;;;12.22;100.00;95733.50;1031954;28;20015;-51
2021/07/05 02:22:37;;;;;;;14.02;2.58;;;;;;;12.23;100.00;95726.44;1031649;28;20435;-50
2021/07/05 02:23:09;;;;;;;8.10;2.47;;;;;;;12.19;100.00;95720.59;1032048;28;20109;-51
2021/07/05 02:23:41;;;;;;;7.68;2.05;;;;;;;12.21;100.00;95729.19;1030915;28;20397;-49
2021/07/05 02:24:11;;;;;;;6.05;2.38;;;;;;;12.20;100.00;95727.53;1031620;28;20026;-50